sensor_id;sensor_type;location;lat;lon;timestamp;pressure;altitude;pressure_sealevel;temperature;humidity
21111;BME280;10713;51.912;4.494;2023-05-23T00:01:13;102046.28;;;14.70;100.00
21111;BME280;10713;51.912;4.494;2023-05-23T00:03:41;102043.03;;;14.62;100.00
21111;BME280;10713;51.912;4.494;2023-05-23T00:06:06;102050.97;;;14.63;100.00
21111;BME280;10713;51.912;4.494;2023-05-23T00:08:32;102046.53;;;14.64;100.00
21111;BME280;10713;51.912;4.494;2023-05-23T00:10:57;102047.63;;;14.58;100.00
21111;BME280;10713;51.912;4.494;2023-05-23T00:13:23;102043.59;;;14.47;100.00
21111;BME280;10713;51.912;4.494;2023-05-23T00:15:48;102058.03;;;14.39;100.00
21111;BME280;10713;51.912;4.494;2023-05-23T00:18:13;102044.75;;;14.39;100.00
21111;BME280;10713;51.912;4.494;2023-05-23T00:20:41;102052.34;;;14.25;100.00
21111;BME280;10713;51.912;4.494;2023-05-23T00:23:11;102049.34;;;14.34;100.00
21111;BME280;10713;51.912;4.494;2023-05-23T00:25:43;102058.50;;;14.51;100.00
21111;BME280;10713;51.912;4.494;2023-05-23T00:28:12;102057.59;;;14.52;100.00
21111;BME280;10713;51.912;4.494;2023-05-23T00:30:37;102060.75;;;14.63;100.00
21111;BME280;10713;51.912;4.494;2023-05-23T00:33:03;102051.94;;;14.61;100.00
21111;BME280;10713;51.912;4.494;2023-05-23T00:35:28;102056.75;;;14.50;100.00
21111;BME280;10713;51.912;4.494;2023-05-23T00:37:53;102059.47;;;14.48;100.00
21111;BME280;10713;51.912;4.494;2023-05-23T00:40:20;102070.00;;;14.51;100.00
21111;BME280;10713;51.912;4.494;2023-05-23T00:42:46;102065.66;;;14.49;100.00
21111;BME280;10713;51.912;4.494;2023-05-23T00:45:11;102059.59;;;14.45;100.00
21111;BME280;10713;51.912;4.494;2023-05-23T00:47:40;102076.41;;;14.46;100.00
21111;BME280;10713;51.912;4.494;2023-05-23T00:50:08;102067.34;;;14.51;100.00
21111;BME280;10713;51.912;4.494;2023-05-23T00:52:36;102067.66;;;14.67;100.00
21111;BME280;10713;51.912;4.494;2023-05-23T00:55:01;102075.28;;;14.76;100.00
21111;BME280;10713;51.912;4.494;2023-05-23T00:57:27;102077.88;;;14.79;100.00
21111;BME280;10713;51.912;4.494;2023-05-23T00:59:52;102070.78;;;14.78;100.00
21111;BME280;10713;51.912;4.494;2023-05-23T01:02:18;102067.03;;;14.60;100.00
21111;BME280;10713;51.912;4.494;2023-05-23T01:04:46;102076.44;;;14.44;100.00
21111;BME280;10713;51.912;4.494;2023-05-23T01:07:12;102073.84;;;14.42;100.00
21111;BME280;10713;51.912;4.494;2023-05-23T01:09:38;102074.50;;;14.49;100.00
21111;BME280;10713;51.912;4.494;2023-05-23T01:12:28;102075.13;;;14.57;100.00
21111;BME280;10713;51.912;4.494;2023-05-23T01:15:08;102071.09;;;14.46;100.00
21111;BME280;10713;51.912;4.494;2023-05-23T01:17:43;102075.34;;;14.50;100.00
21111;BME280;10713;51.912;4.494;2023-05-23T01:20:47;102068.00;;;14.58;100.00
21111;BME280;10713;51.912;4.494;2023-05-23T01:29:03;102064.63;;;14.78;100.00
21111;BME280;10713;51.912;4.494;2023-05-23T01:31:35;102071.84;;;14.98;100.00
21111;BME280;10713;51.912;4.494;2023-05-23T01:34:01;102072.59;;;15.01;100.00
21111;BME280;10713;51.912;4.494;2023-05-23T01:36:27;102062.75;;;15.03;100.00
21111;BME280;10713;51.912;4.494;2023-05-23T01:38:53;102071.56;;;15.05;100.00
21111;BME280;10713;51.912;4.494;2023-05-23T01:41:18;102073.44;;;15.02;100.00
21111;BME280;10713;51.912;4.494;2023-05-23T01:43:43;102076.34;;;14.96;100.00
21111;BME280;10713;51.912;4.494;2023-05-23T01:46:09;102071.66;;;14.79;100.00
21111;BME280;10713;51.912;4.494;2023-05-23T01:48:36;102077.50;;;14.89;100.00
21111;BME280;10713;51.912;4.494;2023-05-23T01:51:02;102081.91;;;14.90;100.00
21111;BME280;10713;51.912;4.494;2023-05-23T01:53:29;102074.84;;;14.89;100.00
21111;BME280;10713;51.912;4.494;2023-05-23T01:55:55;102076.09;;;14.78;100.00
21111;BME280;10713;51.912;4.494;2023-05-23T01:58:21;102082.13;;;14.83;100.00
21111;BME280;10713;51.912;4.494;2023-05-23T02:00:46;102081.06;;;14.87;100.00
21111;BME280;10713;51.912;4.494;2023-05-23T02:03:12;102075.84;;;14.86;100.00
21111;BME280;10713;51.912;4.494;2023-05-23T02:05:37;102077.03;;;14.77;100.00
21111;BME280;10713;51.912;4.494;2023-05-23T02:08:02;102079.84;;;14.73;100.00
21111;BME280;10713;51.912;4.494;2023-05-23T02:10:28;102086.81;;;14.77;100.00
21111;BME280;10713;51.912;4.494;2023-05-23T02:12:53;102083.50;;;14.70;100.00
21111;BME280;10713;51.912;4.494;2023-05-23T02:15:18;102084.03;;;14.80;100.00
21111;BME280;10713;51.912;4.494;2023-05-23T02:17:44;102083.84;;;14.84;100.00
21111;BME280;10713;51.912;4.494;2023-05-23T02:20:09;102085.72;;;14.82;100.00
21111;BME280;10713;51.912;4.494;2023-05-23T02:22:35;102086.47;;;14.62;100.00
21111;BME280;10713;51.912;4.494;2023-05-23T02:25:01;102087.69;;;14.52;100.00
21111;BME280;10713;51.912;4.494;2023-05-23T02:27:26;102086.31;;;14.40;100.00
21111;BME280;10713;51.912;4.494;2023-05-23T02:29:52;102089.78;;;14.42;100.00
21111;BME280;10713;51.912;4.494;2023-05-23T02:32:17;102089.13;;;14.36;100.00
21111;BME280;10713;51.912;4.494;2023-05-23T02:34:42;102107.34;;;14.47;100.00
21111;BME280;10713;51.912;4.494;2023-05-23T02:37:11;102104.81;;;14.43;100.00
21111;BME280;10713;51.912;4.494;2023-05-23T02:39:36;102111.03;;;14.42;100.00
21111;BME280;10713;51.912;4.494;2023-05-23T02:42:02;102105.84;;;14.39;100.00
21111;BME280;10713;51.912;4.494;2023-05-23T02:44:28;102105.50;;;14.49;100.00
21111;BME280;10713;51.912;4.494;2023-05-23T02:46:54;102121.13;;;14.59;100.00
21111;BME280;10713;51.912;4.494;2023-05-23T02:49:19;102116.22;;;14.72;100.00
21111;BME280;10713;51.912;4.494;2023-05-23T02:51:44;102116.09;;;14.75;100.00
21111;BME280;10713;51.912;4.494;2023-05-23T02:54:10;102113.50;;;14.74;100.00
21111;BME280;10713;51.912;4.494;2023-05-23T02:56:35;102122.22;;;14.77;100.00
21111;BME280;10713;51.912;4.494;2023-05-23T02:59:00;102117.81;;;14.76;100.00
21111;BME280;10713;51.912;4.494;2023-05-23T03:01:26;102119.56;;;14.77;100.00
21111;BME280;10713;51.912;4.494;2023-05-23T03:03:51;102115.34;;;14.72;100.00
21111;BME280;10713;51.912;4.494;2023-05-23T03:06:16;102125.72;;;14.79;100.00
21111;BME280;10713;51.912;4.494;2023-05-23T03:08:42;102120.69;;;14.70;100.00
21111;BME280;10713;51.912;4.494;2023-05-23T03:11:08;102121.38;;;14.52;100.00
21111;BME280;10713;51.912;4.494;2023-05-23T03:13:36;102121.16;;;14.58;100.00
21111;BME280;10713;51.912;4.494;2023-05-23T03:16:01;102122.69;;;14.65;100.00
21111;BME280;10713;51.912;4.494;2023-05-23T03:18:26;102107.16;;;14.53;100.00
21111;BME280;10713;51.912;4.494;2023-05-23T03:20:52;102123.84;;;14.56;100.00
21111;BME280;10713;51.912;4.494;2023-05-23T03:23:17;102116.13;;;14.49;100.00
21111;BME280;10713;51.912;4.494;2023-05-23T03:25:43;102115.69;;;14.36;100.00
21111;BME280;10713;51.912;4.494;2023-05-23T03:28:08;102118.53;;;14.31;100.00
21111;BME280;10713;51.912;4.494;2023-05-23T03:30:33;102128.31;;;14.29;100.00
21111;BME280;10713;51.912;4.494;2023-05-23T03:32:59;102131.19;;;14.23;100.00
21111;BME280;10713;51.912;4.494;2023-05-23T03:35:26;102132.09;;;14.22;100.00
21111;BME280;10713;51.912;4.494;2023-05-23T03:37:51;102134.38;;;14.33;100.00
21111;BME280;10713;51.912;4.494;2023-05-23T03:40:16;102140.56;;;14.33;100.00
21111;BME280;10713;51.912;4.494;2023-05-23T03:42:42;102132.03;;;14.25;100.00
21111;BME280;10713;51.912;4.494;2023-05-23T03:45:07;102137.63;;;14.16;100.00
21111;BME280;10713;51.912;4.494;2023-05-23T03:47:32;102138.44;;;14.18;100.00
21111;BME280;10713;51.912;4.494;2023-05-23T03:49:58;102136.28;;;14.29;100.00
21111;BME280;10713;51.912;4.494;2023-05-23T03:52:23;102152.38;;;14.25;100.00
21111;BME280;10713;51.912;4.494;2023-05-23T03:54:48;102152.34;;;14.26;100.00
21111;BME280;10713;51.912;4.494;2023-05-23T03:57:13;102159.69;;;14.18;100.00
21111;BME280;10713;51.912;4.494;2023-05-23T03:59:39;102167.09;;;14.08;100.00
21111;BME280;10713;51.912;4.494;2023-05-23T04:02:04;102149.09;;;13.90;100.00
21111;BME280;10713;51.912;4.494;2023-05-23T04:04:30;102157.66;;;14.00;100.00
21111;BME280;10713;51.912;4.494;2023-05-23T04:06:56;102155.97;;;13.97;100.00
21111;BME280;10713;51.912;4.494;2023-05-23T04:09:22;102164.56;;;14.05;100.00
21111;BME280;10713;51.912;4.494;2023-05-23T04:11:47;102162.47;;;14.13;100.00
21111;BME280;10713;51.912;4.494;2023-05-23T04:14:13;102168.47;;;14.20;100.00
21111;BME280;10713;51.912;4.494;2023-05-23T04:16:38;102169.59;;;14.13;100.00
21111;BME280;10713;51.912;4.494;2023-05-23T04:19:06;102168.16;;;14.03;100.00
21111;BME280;10713;51.912;4.494;2023-05-23T04:21:32;102160.47;;;13.93;100.00
21111;BME280;10713;51.912;4.494;2023-05-23T04:23:57;102177.03;;;14.02;100.00
21111;BME280;10713;51.912;4.494;2023-05-23T04:26:23;102174.25;;;14.06;100.00
21111;BME280;10713;51.912;4.494;2023-05-23T04:28:48;102175.00;;;14.10;100.00
21111;BME280;10713;51.912;4.494;2023-05-23T04:31:14;102171.91;;;13.95;100.00
21111;BME280;10713;51.912;4.494;2023-05-23T04:33:39;102179.59;;;14.05;100.00
21111;BME280;10713;51.912;4.494;2023-05-23T04:36:05;102178.78;;;14.03;100.00
21111;BME280;10713;51.912;4.494;2023-05-23T04:38:34;102179.34;;;14.12;100.00
21111;BME280;10713;51.912;4.494;2023-05-23T04:40:59;102186.97;;;14.23;100.00
21111;BME280;10713;51.912;4.494;2023-05-23T04:43:25;102189.50;;;14.26;100.00
21111;BME280;10713;51.912;4.494;2023-05-23T04:45:53;102190.03;;;14.11;100.00
21111;BME280;10713;51.912;4.494;2023-05-23T04:48:18;102183.38;;;13.97;100.00
21111;BME280;10713;51.912;4.494;2023-05-23T04:50:46;102193.69;;;14.07;100.00
21111;BME280;10713;51.912;4.494;2023-05-23T04:53:12;102198.34;;;14.00;100.00
21111;BME280;10713;51.912;4.494;2023-05-23T04:55:37;102192.41;;;13.92;100.00
21111;BME280;10713;51.912;4.494;2023-05-23T04:58:02;102195.09;;;13.90;100.00
21111;BME280;10713;51.912;4.494;2023-05-23T05:00:28;102207.13;;;14.02;100.00
21111;BME280;10713;51.912;4.494;2023-05-23T05:02:54;102209.06;;;13.97;100.00
21111;BME280;10713;51.912;4.494;2023-05-23T05:05:20;102211.44;;;14.05;100.00
21111;BME280;10713;51.912;4.494;2023-05-23T05:07:45;102212.59;;;13.96;100.00
21111;BME280;10713;51.912;4.494;2023-05-23T05:10:10;102214.94;;;14.07;100.00
21111;BME280;10713;51.912;4.494;2023-05-23T05:12:44;102215.97;;;14.03;100.00
21111;BME280;10713;51.912;4.494;2023-05-23T05:15:19;102206.44;;;13.95;100.00
21111;BME280;10713;51.912;4.494;2023-05-23T05:17:44;102219.47;;;14.03;100.00
21111;BME280;10713;51.912;4.494;2023-05-23T05:20:10;102213.97;;;14.09;100.00
21111;BME280;10713;51.912;4.494;2023-05-23T05:22:37;102215.75;;;14.09;100.00
21111;BME280;10713;51.912;4.494;2023-05-23T05:25:05;102213.84;;;14.14;100.00
21111;BME280;10713;51.912;4.494;2023-05-23T05:27:31;102226.81;;;14.23;100.00
21111;BME280;10713;51.912;4.494;2023-05-23T05:29:57;102224.88;;;14.28;100.00
21111;BME280;10713;51.912;4.494;2023-05-23T05:32:27;102231.06;;;14.29;100.00
21111;BME280;10713;51.912;4.494;2023-05-23T05:34:53;102226.50;;;14.32;100.00
21111;BME280;10713;51.912;4.494;2023-05-23T05:37:18;102234.44;;;14.34;100.00
21111;BME280;10713;51.912;4.494;2023-05-23T05:39:43;102233.72;;;14.29;100.00
21111;BME280;10713;51.912;4.494;2023-05-23T05:42:09;102230.13;;;14.30;100.00
21111;BME280;10713;51.912;4.494;2023-05-23T05:44:34;102232.94;;;14.25;100.00
21111;BME280;10713;51.912;4.494;2023-05-23T05:46:59;102218.78;;;14.25;100.00
21111;BME280;10713;51.912;4.494;2023-05-23T05:49:25;102236.25;;;14.32;100.00
21111;BME280;10713;51.912;4.494;2023-05-23T05:51:50;102240.59;;;14.34;100.00
21111;BME280;10713;51.912;4.494;2023-05-23T05:54:15;102243.19;;;14.36;100.00
21111;BME280;10713;51.912;4.494;2023-05-23T05:56:41;102244.06;;;14.36;100.00
21111;BME280;10713;51.912;4.494;2023-05-23T05:59:06;102238.59;;;14.41;100.00
21111;BME280;10713;51.912;4.494;2023-05-23T06:01:32;102242.03;;;14.45;100.00
21111;BME280;10713;51.912;4.494;2023-05-23T06:03:59;102236.06;;;14.38;100.00
21111;BME280;10713;51.912;4.494;2023-05-23T06:06:24;102240.44;;;14.39;100.00
21111;BME280;10713;51.912;4.494;2023-05-23T06:08:49;102241.47;;;14.35;100.00
21111;BME280;10713;51.912;4.494;2023-05-23T06:11:15;102252.19;;;14.32;100.00
21111;BME280;10713;51.912;4.494;2023-05-23T06:13:40;102254.25;;;14.22;100.00
21111;BME280;10713;51.912;4.494;2023-05-23T06:16:05;102251.56;;;14.24;100.00
21111;BME280;10713;51.912;4.494;2023-05-23T06:18:31;102256.69;;;14.30;100.00
21111;BME280;10713;51.912;4.494;2023-05-23T06:20:56;102267.75;;;14.16;100.00
21111;BME280;10713;51.912;4.494;2023-05-23T06:23:22;102273.94;;;14.16;100.00
21111;BME280;10713;51.912;4.494;2023-05-23T06:25:47;102271.81;;;14.00;100.00
21111;BME280;10713;51.912;4.494;2023-05-23T06:28:12;102284.44;;;13.91;100.00
21111;BME280;10713;51.912;4.494;2023-05-23T06:30:38;102280.34;;;14.09;100.00
21111;BME280;10713;51.912;4.494;2023-05-23T06:33:03;102294.38;;;14.13;100.00
21111;BME280;10713;51.912;4.494;2023-05-23T06:35:29;102290.00;;;14.12;100.00
21111;BME280;10713;51.912;4.494;2023-05-23T06:37:54;102286.78;;;14.02;100.00
21111;BME280;10713;51.912;4.494;2023-05-23T06:40:20;102287.78;;;13.98;100.00
21111;BME280;10713;51.912;4.494;2023-05-23T06:42:45;102282.59;;;13.93;100.00
21111;BME280;10713;51.912;4.494;2023-05-23T06:45:10;102280.13;;;13.87;100.00
21111;BME280;10713;51.912;4.494;2023-05-23T06:47:36;102279.13;;;13.91;100.00
21111;BME280;10713;51.912;4.494;2023-05-23T06:50:02;102279.91;;;13.95;100.00
21111;BME280;10713;51.912;4.494;2023-05-23T06:52:27;102297.53;;;13.97;100.00
21111;BME280;10713;51.912;4.494;2023-05-23T06:54:52;102295.28;;;13.84;100.00
21111;BME280;10713;51.912;4.494;2023-05-23T06:57:18;102309.59;;;13.78;100.00
21111;BME280;10713;51.912;4.494;2023-05-23T06:59:43;102302.56;;;13.77;100.00
21111;BME280;10713;51.912;4.494;2023-05-23T07:02:08;102296.78;;;13.92;100.00
21111;BME280;10713;51.912;4.494;2023-05-23T07:04:34;102301.72;;;14.05;100.00
21111;BME280;10713;51.912;4.494;2023-05-23T07:06:59;102285.03;;;14.01;100.00
21111;BME280;10713;51.912;4.494;2023-05-23T07:09:25;102285.53;;;14.14;100.00
21111;BME280;10713;51.912;4.494;2023-05-23T07:11:50;102289.69;;;14.23;100.00
21111;BME280;10713;51.912;4.494;2023-05-23T07:14:15;102286.44;;;14.41;100.00
21111;BME280;10713;51.912;4.494;2023-05-23T07:16:41;102292.66;;;14.68;100.00
21111;BME280;10713;51.912;4.494;2023-05-23T07:19:06;102290.31;;;15.36;100.00
21111;BME280;10713;51.912;4.494;2023-05-23T07:21:31;102281.41;;;15.85;100.00
21111;BME280;10713;51.912;4.494;2023-05-23T07:23:57;102284.97;;;16.30;100.00
21111;BME280;10713;51.912;4.494;2023-05-23T07:26:22;102276.97;;;16.30;100.00
21111;BME280;10713;51.912;4.494;2023-05-23T07:28:47;102292.00;;;16.31;100.00
21111;BME280;10713;51.912;4.494;2023-05-23T07:31:13;102287.44;;;16.12;100.00
21111;BME280;10713;51.912;4.494;2023-05-23T07:33:38;102287.69;;;16.50;100.00
21111;BME280;10713;51.912;4.494;2023-05-23T07:36:04;102282.97;;;16.99;100.00
21111;BME280;10713;51.912;4.494;2023-05-23T07:38:29;102271.91;;;17.87;100.00
21111;BME280;10713;51.912;4.494;2023-05-23T07:40:55;102276.47;;;19.11;100.00
21111;BME280;10713;51.912;4.494;2023-05-23T07:43:20;102259.94;;;19.86;100.00
21111;BME280;10713;51.912;4.494;2023-05-23T07:45:45;102256.13;;;20.83;100.00
21111;BME280;10713;51.912;4.494;2023-05-23T07:48:11;102259.22;;;21.34;100.00
21111;BME280;10713;51.912;4.494;2023-05-23T07:50:38;102248.53;;;22.04;100.00
21111;BME280;10713;51.912;4.494;2023-05-23T07:53:04;102257.66;;;22.56;100.00
21111;BME280;10713;51.912;4.494;2023-05-23T07:55:30;102255.13;;;22.13;99.85
21111;BME280;10713;51.912;4.494;2023-05-23T07:57:56;102255.31;;;22.10;100.00
21111;BME280;10713;51.912;4.494;2023-05-23T08:00:21;102258.03;;;22.77;100.00
21111;BME280;10713;51.912;4.494;2023-05-23T08:02:46;102257.03;;;23.18;98.16
21111;BME280;10713;51.912;4.494;2023-05-23T08:05:12;102257.09;;;22.91;92.49
21111;BME280;10713;51.912;4.494;2023-05-23T08:07:37;102258.47;;;22.17;97.72
21111;BME280;10713;51.912;4.494;2023-05-23T08:10:03;102274.47;;;21.34;100.00
21111;BME280;10713;51.912;4.494;2023-05-23T08:12:28;102273.00;;;20.55;100.00
21111;BME280;10713;51.912;4.494;2023-05-23T08:14:54;102274.91;;;20.21;100.00
21111;BME280;10713;51.912;4.494;2023-05-23T08:17:19;102282.09;;;19.89;100.00
21111;BME280;10713;51.912;4.494;2023-05-23T08:19:45;102285.28;;;19.63;100.00
21111;BME280;10713;51.912;4.494;2023-05-23T08:22:10;102284.31;;;19.48;100.00
21111;BME280;10713;51.912;4.494;2023-05-23T08:24:36;102276.03;;;19.19;100.00
21111;BME280;10713;51.912;4.494;2023-05-23T08:27:01;102284.47;;;19.29;100.00
21111;BME280;10713;51.912;4.494;2023-05-23T08:29:27;102290.75;;;19.28;100.00
21111;BME280;10713;51.912;4.494;2023-05-23T08:31:52;102287.72;;;19.34;100.00
21111;BME280;10713;51.912;4.494;2023-05-23T08:34:17;102282.22;;;19.37;100.00
21111;BME280;10713;51.912;4.494;2023-05-23T08:36:43;102284.88;;;19.37;100.00
21111;BME280;10713;51.912;4.494;2023-05-23T08:39:08;102284.69;;;19.75;100.00
21111;BME280;10713;51.912;4.494;2023-05-23T08:41:34;102290.50;;;20.15;100.00
21111;BME280;10713;51.912;4.494;2023-05-23T08:44:00;102291.91;;;20.52;100.00
21111;BME280;10713;51.912;4.494;2023-05-23T08:46:25;102283.88;;;20.52;100.00
21111;BME280;10713;51.912;4.494;2023-05-23T08:48:53;102278.66;;;20.65;100.00
21111;BME280;10713;51.912;4.494;2023-05-23T08:51:25;102290.97;;;20.69;100.00
21111;BME280;10713;51.912;4.494;2023-05-23T08:53:50;102288.84;;;21.04;100.00
21111;BME280;10713;51.912;4.494;2023-05-23T08:56:18;102280.91;;;21.31;100.00
21111;BME280;10713;51.912;4.494;2023-05-23T08:58:44;102285.69;;;22.12;97.06
21111;BME280;10713;51.912;4.494;2023-05-23T09:01:13;102291.78;;;22.14;91.61
21111;BME280;10713;51.912;4.494;2023-05-23T09:03:39;102294.03;;;22.22;84.42
21111;BME280;10713;51.912;4.494;2023-05-23T09:06:07;102300.50;;;21.76;82.09
21111;BME280;10713;51.912;4.494;2023-05-23T09:08:33;102300.72;;;21.73;87.05
21111;BME280;10713;51.912;4.494;2023-05-23T09:10:59;102309.56;;;22.31;84.20
21111;BME280;10713;51.912;4.494;2023-05-23T09:13:27;102306.00;;;22.31;70.49
21111;BME280;10713;51.912;4.494;2023-05-23T09:16:08;102305.63;;;23.16;71.67
21111;BME280;10713;51.912;4.494;2023-05-23T09:18:39;102300.97;;;23.06;71.21
21111;BME280;10713;51.912;4.494;2023-05-23T09:21:07;102304.91;;;22.87;71.09
21111;BME280;10713;51.912;4.494;2023-05-23T09:23:34;102310.16;;;22.49;72.14
21111;BME280;10713;51.912;4.494;2023-05-23T09:26:04;102316.50;;;22.75;68.91
21111;BME280;10713;51.912;4.494;2023-05-23T09:28:31;102319.00;;;22.51;67.10
21111;BME280;10713;51.912;4.494;2023-05-23T09:31:03;102318.09;;;21.53;67.18
21111;BME280;10713;51.912;4.494;2023-05-23T09:33:47;102318.75;;;21.43;71.27
21111;BME280;10713;51.912;4.494;2023-05-23T09:36:13;102329.13;;;21.04;70.13
21111;BME280;10713;51.912;4.494;2023-05-23T09:38:41;102315.81;;;21.31;72.51
21111;BME280;10713;51.912;4.494;2023-05-23T09:41:07;102321.88;;;21.35;72.99
21111;BME280;10713;51.912;4.494;2023-05-23T09:43:32;102323.69;;;21.34;69.70
21111;BME280;10713;51.912;4.494;2023-05-23T09:46:09;102326.41;;;21.92;63.41
21111;BME280;10713;51.912;4.494;2023-05-23T09:48:35;102318.84;;;22.40;67.63
21111;BME280;10713;51.912;4.494;2023-05-23T09:51:08;102314.81;;;22.60;64.94
21111;BME280;10713;51.912;4.494;2023-05-23T09:53:34;102318.44;;;22.86;61.95
21111;BME280;10713;51.912;4.494;2023-05-23T09:56:01;102328.47;;;22.44;61.64
21111;BME280;10713;51.912;4.494;2023-05-23T09:58:27;102330.34;;;21.43;61.65
21111;BME280;10713;51.912;4.494;2023-05-23T10:01:01;102330.56;;;21.10;60.89
21111;BME280;10713;51.912;4.494;2023-05-23T10:03:49;102329.13;;;21.04;64.67
21111;BME280;10713;51.912;4.494;2023-05-23T10:06:24;102331.19;;;20.99;65.21
21111;BME280;10713;51.912;4.494;2023-05-23T10:08:56;102335.84;;;20.81;64.28
21111;BME280;10713;51.912;4.494;2023-05-23T10:14:01;102338.66;;;20.94;68.83
21111;BME280;10713;51.912;4.494;2023-05-23T10:19:19;102341.28;;;20.80;65.37
21111;BME280;10713;51.912;4.494;2023-05-23T10:21:50;102341.13;;;20.51;69.10
21111;BME280;10713;51.912;4.494;2023-05-23T10:24:18;102335.13;;;20.32;68.97
21111;BME280;10713;51.912;4.494;2023-05-23T10:26:44;102348.66;;;19.97;71.65
21111;BME280;10713;51.912;4.494;2023-05-23T10:29:10;102358.63;;;20.42;72.25
21111;BME280;10713;51.912;4.494;2023-05-23T10:31:35;102353.44;;;20.71;69.30
21111;BME280;10713;51.912;4.494;2023-05-23T10:34:22;102350.97;;;20.82;65.63
21111;BME280;10713;51.912;4.494;2023-05-23T10:36:59;102350.50;;;20.76;63.62
21111;BME280;10713;51.912;4.494;2023-05-23T10:39:48;102351.91;;;20.97;63.54
21111;BME280;10713;51.912;4.494;2023-05-23T10:42:16;102351.78;;;20.84;60.68
21111;BME280;10713;51.912;4.494;2023-05-23T10:44:41;102350.16;;;21.12;61.07
21111;BME280;10713;51.912;4.494;2023-05-23T10:47:07;102363.28;;;21.47;58.30
21111;BME280;10713;51.912;4.494;2023-05-23T10:49:51;102351.78;;;20.68;55.33
21111;BME280;10713;51.912;4.494;2023-05-23T10:52:17;102344.94;;;19.84;59.79
21111;BME280;10713;51.912;4.494;2023-05-23T10:54:43;102357.72;;;19.94;65.05
21111;BME280;10713;51.912;4.494;2023-05-23T10:57:10;102352.63;;;20.06;67.17
21111;BME280;10713;51.912;4.494;2023-05-23T10:59:38;102356.81;;;20.27;66.96
21111;BME280;10713;51.912;4.494;2023-05-23T11:02:11;102359.66;;;20.24;64.98
21111;BME280;10713;51.912;4.494;2023-05-23T11:04:37;102355.50;;;20.18;65.10
21111;BME280;10713;51.912;4.494;2023-05-23T11:07:02;102353.59;;;20.36;65.92
21111;BME280;10713;51.912;4.494;2023-05-23T11:09:28;102364.94;;;20.73;66.49
21111;BME280;10713;51.912;4.494;2023-05-23T11:12:03;102367.88;;;20.84;64.31
21111;BME280;10713;51.912;4.494;2023-05-23T11:14:51;102336.81;;;20.01;65.64
21111;BME280;10713;51.912;4.494;2023-05-23T11:17:24;102360.88;;;20.18;69.92
21111;BME280;10713;51.912;4.494;2023-05-23T11:20:04;102361.56;;;20.22;69.91
21111;BME280;10713;51.912;4.494;2023-05-23T11:22:31;102361.97;;;20.14;68.70
21111;BME280;10713;51.912;4.494;2023-05-23T11:24:58;102365.06;;;19.57;70.05
21111;BME280;10713;51.912;4.494;2023-05-23T11:27:36;102353.44;;;19.57;72.62
21111;BME280;10713;51.912;4.494;2023-05-23T11:30:05;102359.09;;;19.86;72.14
21111;BME280;10713;51.912;4.494;2023-05-23T11:32:31;102369.16;;;20.14;69.95
21111;BME280;10713;51.912;4.494;2023-05-23T11:35:05;102369.97;;;20.32;69.39
21111;BME280;10713;51.912;4.494;2023-05-23T11:37:31;102384.84;;;20.21;67.01
21111;BME280;10713;51.912;4.494;2023-05-23T11:39:57;102373.78;;;20.43;66.79
21111;BME280;10713;51.912;4.494;2023-05-23T11:42:23;102377.31;;;20.76;64.50
21111;BME280;10713;51.912;4.494;2023-05-23T11:44:49;102375.19;;;20.66;63.24
21111;BME280;10713;51.912;4.494;2023-05-23T11:47:16;102374.78;;;20.25;63.23
21111;BME280;10713;51.912;4.494;2023-05-23T11:49:44;102376.44;;;20.28;62.98
21111;BME280;10713;51.912;4.494;2023-05-23T11:52:10;102366.59;;;20.44;62.58
21111;BME280;10713;51.912;4.494;2023-05-23T11:54:35;102368.75;;;20.37;63.49
21111;BME280;10713;51.912;4.494;2023-05-23T11:57:01;102373.75;;;20.28;63.24
21111;BME280;10713;51.912;4.494;2023-05-23T11:59:27;102375.16;;;20.51;61.35
21111;BME280;10713;51.912;4.494;2023-05-23T12:01:54;102376.28;;;20.31;60.85
21111;BME280;10713;51.912;4.494;2023-05-23T12:04:20;102371.84;;;19.98;60.44
21111;BME280;10713;51.912;4.494;2023-05-23T12:06:47;102374.00;;;20.23;61.22
21111;BME280;10713;51.912;4.494;2023-05-23T12:09:13;102366.69;;;20.58;61.15
21111;BME280;10713;51.912;4.494;2023-05-23T12:11:40;102380.00;;;20.28;59.82
21111;BME280;10713;51.912;4.494;2023-05-23T12:14:06;102377.88;;;20.01;60.47
21111;BME280;10713;51.912;4.494;2023-05-23T12:16:32;102386.38;;;20.25;59.76
21111;BME280;10713;51.912;4.494;2023-05-23T12:19:00;102372.22;;;20.23;58.28
21111;BME280;10713;51.912;4.494;2023-05-23T12:21:31;102372.47;;;20.19;59.44
21111;BME280;10713;51.912;4.494;2023-05-23T12:26:52;102394.31;;;20.11;60.01
21111;BME280;10713;51.912;4.494;2023-05-23T12:29:28;102375.03;;;20.05;59.45
21111;BME280;10713;51.912;4.494;2023-05-23T12:31:54;102388.53;;;20.03;61.96
21111;BME280;10713;51.912;4.494;2023-05-23T12:34:20;102386.16;;;19.81;62.24
21111;BME280;10713;51.912;4.494;2023-05-23T12:36:46;102375.22;;;20.01;65.00
21111;BME280;10713;51.912;4.494;2023-05-23T12:39:13;102369.06;;;19.99;63.61
21111;BME280;10713;51.912;4.494;2023-05-23T12:41:41;102380.13;;;19.93;65.42
21111;BME280;10713;51.912;4.494;2023-05-23T12:44:07;102375.03;;;19.89;66.24
21111;BME280;10713;51.912;4.494;2023-05-23T12:46:33;102384.53;;;19.94;65.51
21111;BME280;10713;51.912;4.494;2023-05-23T12:48:58;102380.56;;;20.01;64.34
21111;BME280;10713;51.912;4.494;2023-05-23T12:51:24;102382.84;;;20.25;64.61
21111;BME280;10713;51.912;4.494;2023-05-23T12:53:50;102381.28;;;20.37;63.34
21111;BME280;10713;51.912;4.494;2023-05-23T12:56:15;102360.38;;;20.12;63.33